sensor_id;sensor_type;location;lat;lon;timestamp;P1;durP1;ratioP1;P2;durP2;ratioP2
28130;SDS011;15418;42.634;23.374;2022-09-01T00:01:55;24.30;;;17.98;;
28130;SDS011;15418;42.634;23.374;2022-09-01T00:04:22;23.00;;;17.67;;
28130;SDS011;15418;42.634;23.374;2022-09-01T00:06:52;24.20;;;17.55;;
28130;SDS011;15418;42.634;23.374;2022-09-01T00:09:19;23.25;;;17.63;;
28130;SDS011;15418;42.634;23.374;2022-09-01T00:11:49;28.35;;;18.55;;
28130;SDS011;15418;42.634;23.374;2022-09-01T00:14:21;23.77;;;18.42;;
28130;SDS011;15418;42.634;23.374;2022-09-01T00:16:50;23.45;;;16.98;;
28130;SDS011;15418;42.634;23.374;2022-09-01T00:19:16;24.88;;;16.45;;
28130;SDS011;15418;42.634;23.374;2022-09-01T00:21:42;22.80;;;16.35;;
28130;SDS011;15418;42.634;23.374;2022-09-01T00:24:09;19.85;;;15.43;;
28130;SDS011;15418;42.634;23.374;2022-09-01T00:26:37;22.17;;;16.40;;
28130;SDS011;15418;42.634;23.374;2022-09-01T00:29:03;21.80;;;16.63;;
28130;SDS011;15418;42.634;23.374;2022-09-01T00:31:29;25.58;;;17.10;;
28130;SDS011;15418;42.634;23.374;2022-09-01T00:33:54;23.58;;;16.45;;
28130;SDS011;15418;42.634;23.374;2022-09-01T00:36:20;22.98;;;16.60;;
28130;SDS011;15418;42.634;23.374;2022-09-01T00:38:46;25.13;;;17.42;;
28130;SDS011;15418;42.634;23.374;2022-09-01T00:41:12;21.33;;;16.92;;
28130;SDS011;15418;42.634;23.374;2022-09-01T00:43:43;27.08;;;17.55;;
28130;SDS011;15418;42.634;23.374;2022-09-01T00:46:17;23.17;;;18.15;;
28130;SDS011;15418;42.634;23.374;2022-09-01T00:51:42;22.80;;;17.02;;
28130;SDS011;15418;42.634;23.374;2022-09-01T00:54:13;25.55;;;17.55;;
28130;SDS011;15418;42.634;23.374;2022-09-01T00:56:42;28.95;;;18.27;;
28130;SDS011;15418;42.634;23.374;2022-09-01T00:59:10;19.92;;;16.17;;
28130;SDS011;15418;42.634;23.374;2022-09-01T01:01:37;23.13;;;16.75;;
28130;SDS011;15418;42.634;23.374;2022-09-01T01:04:04;27.55;;;17.70;;
28130;SDS011;15418;42.634;23.374;2022-09-01T01:06:39;23.42;;;17.13;;
28130;SDS011;15418;42.634;23.374;2022-09-01T01:09:07;22.40;;;17.95;;
28130;SDS011;15418;42.634;23.374;2022-09-01T01:11:33;23.73;;;16.75;;
28130;SDS011;15418;42.634;23.374;2022-09-01T01:14:00;26.70;;;17.90;;
28130;SDS011;15418;42.634;23.374;2022-09-01T01:16:42;22.27;;;17.63;;
28130;SDS011;15418;42.634;23.374;2022-09-01T01:19:15;26.30;;;17.60;;
28130;SDS011;15418;42.634;23.374;2022-09-01T01:22:07;29.42;;;18.83;;
28130;SDS011;15418;42.634;23.374;2022-09-01T01:24:56;24.88;;;18.55;;
28130;SDS011;15418;42.634;23.374;2022-09-01T01:27:22;23.73;;;17.60;;
28130;SDS011;15418;42.634;23.374;2022-09-01T01:29:48;22.70;;;17.58;;
28130;SDS011;15418;42.634;23.374;2022-09-01T01:32:17;22.35;;;18.02;;
28130;SDS011;15418;42.634;23.374;2022-09-01T01:34:43;23.23;;;17.92;;
28130;SDS011;15418;42.634;23.374;2022-09-01T01:37:10;23.65;;;17.92;;
28130;SDS011;15418;42.634;23.374;2022-09-01T01:39:38;28.10;;;18.92;;
28130;SDS011;15418;42.634;23.374;2022-09-01T01:42:07;28.73;;;19.83;;
28130;SDS011;15418;42.634;23.374;2022-09-01T01:44:34;26.48;;;18.73;;
28130;SDS011;15418;42.634;23.374;2022-09-01T01:47:02;27.52;;;20.67;;
28130;SDS011;15418;42.634;23.374;2022-09-01T01:49:32;25.48;;;19.88;;
28130;SDS011;15418;42.634;23.374;2022-09-01T01:51:58;24.92;;;18.30;;
28130;SDS011;15418;42.634;23.374;2022-09-01T01:54:25;30.55;;;18.60;;
28130;SDS011;15418;42.634;23.374;2022-09-01T01:56:53;29.10;;;18.85;;
28130;SDS011;15418;42.634;23.374;2022-09-01T01:59:19;24.50;;;19.55;;
28130;SDS011;15418;42.634;23.374;2022-09-01T02:01:46;31.52;;;19.25;;
28130;SDS011;15418;42.634;23.374;2022-09-01T02:04:13;27.92;;;19.30;;
28130;SDS011;15418;42.634;23.374;2022-09-01T02:06:41;25.77;;;19.85;;
28130;SDS011;15418;42.634;23.374;2022-09-01T02:09:10;29.58;;;19.88;;
28130;SDS011;15418;42.634;23.374;2022-09-01T02:11:37;25.80;;;19.88;;
28130;SDS011;15418;42.634;23.374;2022-09-01T02:14:04;28.40;;;20.58;;
28130;SDS011;15418;42.634;23.374;2022-09-01T02:16:32;28.42;;;20.83;;
28130;SDS011;15418;42.634;23.374;2022-09-01T02:18:59;29.38;;;20.63;;
28130;SDS011;15418;42.634;23.374;2022-09-01T02:21:26;27.80;;;21.17;;
28130;SDS011;15418;42.634;23.374;2022-09-01T02:23:53;27.20;;;20.90;;
28130;SDS011;15418;42.634;23.374;2022-09-01T02:26:29;27.92;;;21.13;;
28130;SDS011;15418;42.634;23.374;2022-09-01T02:28:58;31.00;;;20.98;;
28130;SDS011;15418;42.634;23.374;2022-09-01T02:31:29;32.83;;;20.20;;
28130;SDS011;15418;42.634;23.374;2022-09-01T02:34:08;33.47;;;20.27;;
28130;SDS011;15418;42.634;23.374;2022-09-01T02:36:38;28.63;;;21.50;;
28130;SDS011;15418;42.634;23.374;2022-09-01T02:39:18;25.83;;;18.83;;
28130;SDS011;15418;42.634;23.374;2022-09-01T02:41:47;29.25;;;19.63;;
28130;SDS011;15418;42.634;23.374;2022-09-01T02:44:13;29.35;;;18.05;;
28130;SDS011;15418;42.634;23.374;2022-09-01T02:46:40;27.15;;;19.20;;
28130;SDS011;15418;42.634;23.374;2022-09-01T02:49:11;26.95;;;19.63;;
28130;SDS011;15418;42.634;23.374;2022-09-01T02:51:45;22.48;;;17.98;;
28130;SDS011;15418;42.634;23.374;2022-09-01T02:54:14;24.55;;;18.55;;
28130;SDS011;15418;42.634;23.374;2022-09-01T02:56:42;23.42;;;19.20;;
28130;SDS011;15418;42.634;23.374;2022-09-01T02:59:13;23.98;;;19.00;;
28130;SDS011;15418;42.634;23.374;2022-09-01T03:01:46;33.22;;;20.55;;
28130;SDS011;15418;42.634;23.374;2022-09-01T03:04:14;28.92;;;18.90;;
28130;SDS011;15418;42.634;23.374;2022-09-01T03:06:40;28.20;;;20.38;;
28130;SDS011;15418;42.634;23.374;2022-09-01T03:09:08;23.95;;;19.95;;
28130;SDS011;15418;42.634;23.374;2022-09-01T03:11:36;25.38;;;19.98;;
28130;SDS011;15418;42.634;23.374;2022-09-01T03:14:03;28.58;;;21.08;;
28130;SDS011;15418;42.634;23.374;2022-09-01T03:16:31;30.17;;;22.50;;
28130;SDS011;15418;42.634;23.374;2022-09-01T03:18:57;32.50;;;22.50;;
28130;SDS011;15418;42.634;23.374;2022-09-01T03:21:24;29.75;;;20.88;;
28130;SDS011;15418;42.634;23.374;2022-09-01T03:23:50;28.60;;;18.17;;
28130;SDS011;15418;42.634;23.374;2022-09-01T03:26:17;23.52;;;17.08;;
28130;SDS011;15418;42.634;23.374;2022-09-01T03:28:46;24.15;;;16.45;;
28130;SDS011;15418;42.634;23.374;2022-09-01T03:31:12;23.27;;;17.15;;
28130;SDS011;15418;42.634;23.374;2022-09-01T03:33:39;28.27;;;15.85;;
28130;SDS011;15418;42.634;23.374;2022-09-01T03:36:05;27.50;;;16.60;;
28130;SDS011;15418;42.634;23.374;2022-09-01T03:38:31;25.10;;;16.58;;
28130;SDS011;15418;42.634;23.374;2022-09-01T03:40:59;24.83;;;18.98;;
28130;SDS011;15418;42.634;23.374;2022-09-01T03:43:30;28.67;;;17.52;;
28130;SDS011;15418;42.634;23.374;2022-09-01T03:45:57;24.30;;;17.23;;
28130;SDS011;15418;42.634;23.374;2022-09-01T03:48:27;25.63;;;16.55;;
28130;SDS011;15418;42.634;23.374;2022-09-01T03:50:54;22.77;;;16.15;;
28130;SDS011;15418;42.634;23.374;2022-09-01T03:53:26;22.33;;;16.83;;
28130;SDS011;15418;42.634;23.374;2022-09-01T03:55:52;23.67;;;17.15;;
28130;SDS011;15418;42.634;23.374;2022-09-01T03:58:20;31.80;;;18.17;;
28130;SDS011;15418;42.634;23.374;2022-09-01T04:00:47;25.35;;;16.73;;
28130;SDS011;15418;42.634;23.374;2022-09-01T04:03:16;29.08;;;18.08;;
28130;SDS011;15418;42.634;23.374;2022-09-01T04:05:46;27.38;;;16.33;;
28130;SDS011;15418;42.634;23.374;2022-09-01T04:08:12;25.65;;;15.88;;
28130;SDS011;15418;42.634;23.374;2022-09-01T04:10:46;23.88;;;17.25;;
28130;SDS011;15418;42.634;23.374;2022-09-01T04:13:20;23.15;;;16.02;;
28130;SDS011;15418;42.634;23.374;2022-09-01T04:15:48;22.38;;;15.82;;
28130;SDS011;15418;42.634;23.374;2022-09-01T04:18:14;31.75;;;17.35;;
28130;SDS011;15418;42.634;23.374;2022-09-01T04:20:45;22.70;;;16.67;;
28130;SDS011;15418;42.634;23.374;2022-09-01T04:23:20;23.83;;;17.13;;
28130;SDS011;15418;42.634;23.374;2022-09-01T04:25:57;27.00;;;16.85;;
28130;SDS011;15418;42.634;23.374;2022-09-01T04:28:33;30.15;;;17.88;;
28130;SDS011;15418;42.634;23.374;2022-09-01T04:31:01;26.70;;;17.35;;
28130;SDS011;15418;42.634;23.374;2022-09-01T04:33:30;27.42;;;17.77;;
28130;SDS011;15418;42.634;23.374;2022-09-01T04:36:14;24.77;;;17.50;;
28130;SDS011;15418;42.634;23.374;2022-09-01T04:38:47;26.65;;;16.70;;
28130;SDS011;15418;42.634;23.374;2022-09-01T04:41:18;27.33;;;18.05;;
28130;SDS011;15418;42.634;23.374;2022-09-01T04:43:45;29.27;;;17.88;;
28130;SDS011;15418;42.634;23.374;2022-09-01T04:46:14;27.45;;;17.83;;
28130;SDS011;15418;42.634;23.374;2022-09-01T04:48:41;24.92;;;17.00;;
28130;SDS011;15418;42.634;23.374;2022-09-01T04:51:12;27.98;;;17.08;;
28130;SDS011;15418;42.634;23.374;2022-09-01T04:53:39;23.40;;;16.52;;
28130;SDS011;15418;42.634;23.374;2022-09-01T04:56:14;24.23;;;17.30;;
28130;SDS011;15418;42.634;23.374;2022-09-01T04:58:45;24.40;;;19.38;;
28130;SDS011;15418;42.634;23.374;2022-09-01T05:01:12;33.90;;;19.88;;
28130;SDS011;15418;42.634;23.374;2022-09-01T05:03:40;37.58;;;21.02;;
28130;SDS011;15418;42.634;23.374;2022-09-01T05:06:11;42.45;;;20.98;;
28130;SDS011;15418;42.634;23.374;2022-09-01T05:08:41;31.65;;;20.52;;
28130;SDS011;15418;42.634;23.374;2022-09-01T05:11:09;31.58;;;19.75;;
28130;SDS011;15418;42.634;23.374;2022-09-01T05:13:35;34.92;;;20.33;;
28130;SDS011;15418;42.634;23.374;2022-09-01T05:16:06;33.60;;;19.20;;
28130;SDS011;15418;42.634;23.374;2022-09-01T05:18:39;26.20;;;19.00;;
28130;SDS011;15418;42.634;23.374;2022-09-01T05:21:08;22.95;;;17.38;;
28130;SDS011;15418;42.634;23.374;2022-09-01T05:23:35;22.63;;;17.50;;
28130;SDS011;15418;42.634;23.374;2022-09-01T05:26:05;26.30;;;17.90;;
28130;SDS011;15418;42.634;23.374;2022-09-01T05:28:41;34.33;;;18.42;;
28130;SDS011;15418;42.634;23.374;2022-09-01T05:31:09;30.13;;;19.65;;
28130;SDS011;15418;42.634;23.374;2022-09-01T05:33:36;30.60;;;18.35;;
28130;SDS011;15418;42.634;23.374;2022-09-01T05:36:10;34.40;;;18.58;;
28130;SDS011;15418;42.634;23.374;2022-09-01T05:38:37;27.02;;;19.38;;
28130;SDS011;15418;42.634;23.374;2022-09-01T05:41:07;26.95;;;18.75;;
28130;SDS011;15418;42.634;23.374;2022-09-01T05:43:39;27.38;;;18.33;;
28130;SDS011;15418;42.634;23.374;2022-09-01T05:46:11;31.65;;;21.60;;
28130;SDS011;15418;42.634;23.374;2022-09-01T05:48:44;42.70;;;27.90;;
28130;SDS011;15418;42.634;23.374;2022-09-01T05:51:14;42.65;;;27.98;;
28130;SDS011;15418;42.634;23.374;2022-09-01T05:53:44;45.53;;;26.58;;
28130;SDS011;15418;42.634;23.374;2022-09-01T05:56:10;42.75;;;29.40;;
28130;SDS011;15418;42.634;23.374;2022-09-01T05:58:39;44.55;;;28.05;;
28130;SDS011;15418;42.634;23.374;2022-09-01T06:01:07;44.33;;;25.73;;
28130;SDS011;15418;42.634;23.374;2022-09-01T06:03:33;48.65;;;25.48;;
28130;SDS011;15418;42.634;23.374;2022-09-01T06:06:03;45.15;;;25.70;;
28130;SDS011;15418;42.634;23.374;2022-09-01T06:08:33;50.42;;;25.95;;
28130;SDS011;15418;42.634;23.374;2022-09-01T06:11:00;44.45;;;25.27;;
28130;SDS011;15418;42.634;23.374;2022-09-01T06:13:25;45.72;;;25.90;;
28130;SDS011;15418;42.634;23.374;2022-09-01T06:15:51;54.03;;;28.45;;
28130;SDS011;15418;42.634;23.374;2022-09-01T06:18:18;47.83;;;28.70;;
28130;SDS011;15418;42.634;23.374;2022-09-01T06:20:46;38.10;;;26.77;;
28130;SDS011;15418;42.634;23.374;2022-09-01T06:23:13;66.18;;;34.40;;
28130;SDS011;15418;42.634;23.374;2022-09-01T06:25:41;45.90;;;27.80;;
28130;SDS011;15418;42.634;23.374;2022-09-01T06:28:10;58.08;;;30.67;;
28130;SDS011;15418;42.634;23.374;2022-09-01T06:30:37;57.45;;;32.28;;
28130;SDS011;15418;42.634;23.374;2022-09-01T06:33:04;45.97;;;28.48;;
28130;SDS011;15418;42.634;23.374;2022-09-01T06:35:33;45.05;;;28.35;;
28130;SDS011;15418;42.634;23.374;2022-09-01T06:37:59;49.25;;;26.55;;
28130;SDS011;15418;42.634;23.374;2022-09-01T06:40:27;46.28;;;26.25;;
28130;SDS011;15418;42.634;23.374;2022-09-01T06:42:52;40.90;;;24.15;;
28130;SDS011;15418;42.634;23.374;2022-09-01T06:45:20;42.35;;;24.50;;
28130;SDS011;15418;42.634;23.374;2022-09-01T06:47:47;46.35;;;24.35;;
28130;SDS011;15418;42.634;23.374;2022-09-01T06:50:15;45.47;;;23.60;;
28130;SDS011;15418;42.634;23.374;2022-09-01T06:52:44;43.17;;;24.80;;
28130;SDS011;15418;42.634;23.374;2022-09-01T06:55:10;37.15;;;24.23;;
28130;SDS011;15418;42.634;23.374;2022-09-01T06:57:37;37.42;;;23.52;;
28130;SDS011;15418;42.634;23.374;2022-09-01T07:00:05;37.58;;;22.70;;
28130;SDS011;15418;42.634;23.374;2022-09-01T07:02:44;43.85;;;24.52;;
28130;SDS011;15418;42.634;23.374;2022-09-01T07:05:11;39.05;;;23.65;;
28130;SDS011;15418;42.634;23.374;2022-09-01T07:07:41;40.97;;;22.33;;
28130;SDS011;15418;42.634;23.374;2022-09-01T07:10:12;39.67;;;22.60;;
28130;SDS011;15418;42.634;23.374;2022-09-01T07:12:38;36.92;;;22.55;;
28130;SDS011;15418;42.634;23.374;2022-09-01T07:15:07;38.67;;;23.45;;
28130;SDS011;15418;42.634;23.374;2022-09-01T07:17:33;42.90;;;23.65;;
28130;SDS011;15418;42.634;23.374;2022-09-01T07:19:58;42.63;;;23.92;;
28130;SDS011;15418;42.634;23.374;2022-09-01T07:22:24;42.70;;;25.50;;
28130;SDS011;15418;42.634;23.374;2022-09-01T07:24:49;40.10;;;24.30;;
28130;SDS011;15418;42.634;23.374;2022-09-01T07:27:21;46.03;;;23.85;;
28130;SDS011;15418;42.634;23.374;2022-09-01T07:29:52;43.00;;;23.50;;
28130;SDS011;15418;42.634;23.374;2022-09-01T07:32:21;53.45;;;27.48;;
28130;SDS011;15418;42.634;23.374;2022-09-01T07:34:47;42.83;;;23.88;;
28130;SDS011;15418;42.634;23.374;2022-09-01T07:37:13;36.20;;;22.88;;
28130;SDS011;15418;42.634;23.374;2022-09-01T07:39:40;42.20;;;21.23;;
28130;SDS011;15418;42.634;23.374;2022-09-01T07:42:11;31.45;;;21.10;;
28130;SDS011;15418;42.634;23.374;2022-09-01T07:44:37;36.55;;;21.30;;
28130;SDS011;15418;42.634;23.374;2022-09-01T07:47:03;37.35;;;20.73;;
28130;SDS011;15418;42.634;23.374;2022-09-01T07:49:33;33.72;;;20.90;;
28130;SDS011;15418;42.634;23.374;2022-09-01T07:52:02;33.03;;;20.42;;
28130;SDS011;15418;42.634;23.374;2022-09-01T07:54:29;38.50;;;19.02;;
28130;SDS011;15418;42.634;23.374;2022-09-01T07:56:55;30.35;;;19.38;;
28130;SDS011;15418;42.634;23.374;2022-09-01T07:59:21;33.25;;;20.25;;
28130;SDS011;15418;42.634;23.374;2022-09-01T08:01:49;34.45;;;21.17;;
28130;SDS011;15418;42.634;23.374;2022-09-01T08:04:15;31.95;;;22.50;;
28130;SDS011;15418;42.634;23.374;2022-09-01T08:06:42;34.70;;;21.17;;
28130;SDS011;15418;42.634;23.374;2022-09-01T08:09:08;30.75;;;21.52;;
28130;SDS011;15418;42.634;23.374;2022-09-01T08:11:34;34.25;;;22.00;;
28130;SDS011;15418;42.634;23.374;2022-09-01T08:14:00;27.52;;;17.67;;
28130;SDS011;15418;42.634;23.374;2022-09-01T08:16:27;26.73;;;16.35;;
28130;SDS011;15418;42.634;23.374;2022-09-01T08:18:54;32.58;;;18.95;;
28130;SDS011;15418;42.634;23.374;2022-09-01T08:21:22;28.60;;;16.98;;
28130;SDS011;15418;42.634;23.374;2022-09-01T08:23:50;33.88;;;20.02;;
28130;SDS011;15418;42.634;23.374;2022-09-01T08:26:20;25.38;;;18.55;;
28130;SDS011;15418;42.634;23.374;2022-09-01T08:28:47;27.67;;;18.45;;
28130;SDS011;15418;42.634;23.374;2022-09-01T08:31:14;30.73;;;17.20;;
28130;SDS011;15418;42.634;23.374;2022-09-01T08:33:41;23.88;;;16.65;;
28130;SDS011;15418;42.634;23.374;2022-09-01T08:36:10;32.30;;;17.42;;
28130;SDS011;15418;42.634;23.374;2022-09-01T08:38:39;28.58;;;16.83;;
28130;SDS011;15418;42.634;23.374;2022-09-01T08:41:16;30.60;;;16.50;;
28130;SDS011;15418;42.634;23.374;2022-09-01T08:46:33;33.05;;;15.73;;
28130;SDS011;15418;42.634;23.374;2022-09-01T08:51:51;25.35;;;16.05;;
28130;SDS011;15418;42.634;23.374;2022-09-01T08:54:24;23.45;;;15.32;;
28130;SDS011;15418;42.634;23.374;2022-09-01T08:56:56;32.88;;;16.40;;
28130;SDS011;15418;42.634;23.374;2022-09-01T08:59:26;26.95;;;16.75;;
28130;SDS011;15418;42.634;23.374;2022-09-01T09:07:18;31.20;;;17.17;;
28130;SDS011;15418;42.634;23.374;2022-09-01T09:09:51;37.42;;;19.50;;
28130;SDS011;15418;42.634;23.374;2022-09-01T09:12:29;42.13;;;21.52;;
28130;SDS011;15418;42.634;23.374;2022-09-01T09:17:52;33.00;;;19.95;;
28130;SDS011;15418;42.634;23.374;2022-09-01T09:20:33;28.20;;;20.08;;
28130;SDS011;15418;42.634;23.374;2022-09-01T09:22:59;28.23;;;18.80;;
28130;SDS011;15418;42.634;23.374;2022-09-01T09:25:35;38.50;;;22.33;;
28130;SDS011;15418;42.634;23.374;2022-09-01T09:28:01;32.28;;;19.23;;
28130;SDS011;15418;42.634;23.374;2022-09-01T09:30:27;24.95;;;17.25;;
28130;SDS011;15418;42.634;23.374;2022-09-01T09:32:56;31.75;;;18.58;;
28130;SDS011;15418;42.634;23.374;2022-09-01T09:35:45;34.85;;;16.55;;
28130;SDS011;15418;42.634;23.374;2022-09-01T09:43:41;24.02;;;13.40;;
28130;SDS011;15418;42.634;23.374;2022-09-01T09:51:54;23.75;;;12.50;;
28130;SDS011;15418;42.634;23.374;2022-09-01T09:54:25;22.10;;;13.10;;
28130;SDS011;15418;42.634;23.374;2022-09-01T10:02:39;22.40;;;11.90;;
28130;SDS011;15418;42.634;23.374;2022-09-01T10:07:49;21.23;;;12.50;;
28130;SDS011;15418;42.634;23.374;2022-09-01T10:15:37;22.98;;;13.02;;
28130;SDS011;15418;42.634;23.374;2022-09-01T10:18:07;20.75;;;12.95;;
28130;SDS011;15418;42.634;23.374;2022-09-01T10:20:38;17.98;;;12.07;;
28130;SDS011;15418;42.634;23.374;2022-09-01T10:23:19;31.27;;;13.45;;
28130;SDS011;15418;42.634;23.374;2022-09-01T10:25:45;19.00;;;10.95;;
28130;SDS011;15418;42.634;23.374;2022-09-01T10:28:15;23.20;;;13.75;;
28130;SDS011;15418;42.634;23.374;2022-09-01T10:33:18;21.05;;;11.95;;
28130;SDS011;15418;42.634;23.374;2022-09-01T10:35:47;22.63;;;12.63;;
28130;SDS011;15418;42.634;23.374;2022-09-01T10:38:16;30.90;;;13.00;;
28130;SDS011;15418;42.634;23.374;2022-09-01T10:40:49;16.92;;;11.70;;
28130;SDS011;15418;42.634;23.374;2022-09-01T10:46:08;21.33;;;13.13;;
28130;SDS011;15418;42.634;23.374;2022-09-01T10:48:54;26.02;;;12.27;;
28130;SDS011;15418;42.634;23.374;2022-09-01T10:53:47;22.55;;;11.98;;
28130;SDS011;15418;42.634;23.374;2022-09-01T10:56:19;20.60;;;11.48;;
28130;SDS011;15418;42.634;23.374;2022-09-01T11:14:46;23.63;;;12.20;;
28130;SDS011;15418;42.634;23.374;2022-09-01T11:22:36;30.63;;;12.90;;
28130;SDS011;15418;42.634;23.374;2022-09-01T11:25:30;21.40;;;13.63;;
28130;SDS011;15418;42.634;23.374;2022-09-01T11:33:49;22.02;;;11.55;;
28130;SDS011;15418;42.634;23.374;2022-09-01T11:36:31;26.88;;;12.15;;
28130;SDS011;15418;42.634;23.374;2022-09-01T11:39:07;19.98;;;11.65;;
28130;SDS011;15418;42.634;23.374;2022-09-01T11:44:12;17.15;;;12.18;;
28130;SDS011;15418;42.634;23.374;2022-09-01T11:46:48;25.92;;;12.80;;
28130;SDS011;15418;42.634;23.374;2022-09-01T11:49:25;16.45;;;11.07;;
28130;SDS011;15418;42.634;23.374;2022-09-01T11:52:02;17.77;;;12.15;;
28130;SDS011;15418;42.634;23.374;2022-09-01T11:54:35;22.23;;;12.95;;
28130;SDS011;15418;42.634;23.374;2022-09-01T11:59:44;24.60;;;12.20;;
28130;SDS011;15418;42.634;23.374;2022-09-01T12:02:15;23.27;;;12.85;;
28130;SDS011;15418;42.634;23.374;2022-09-01T12:04:46;23.65;;;13.27;;
28130;SDS011;15418;42.634;23.374;2022-09-01T12:07:22;21.60;;;11.55;;
28130;SDS011;15418;42.634;23.374;2022-09-01T12:09:51;24.42;;;12.82;;
28130;SDS011;15418;42.634;23.374;2022-09-01T12:12:31;21.33;;;11.93;;
28130;SDS011;15418;42.634;23.374;2022-09-01T12:15:05;23.33;;;13.13;;
28130;SDS011;15418;42.634;23.374;2022-09-01T12:17:39;18.80;;;12.65;;
28130;SDS011;15418;42.634;23.374;2022-09-01T12:20:21;19.13;;;13.05;;
28130;SDS011;15418;42.634;23.374;2022-09-01T12:22:57;24.42;;;13.30;;
28130;SDS011;15418;42.634;23.374;2022-09-01T12:25:31;22.52;;;13.20;;
28130;SDS011;15418;42.634;23.374;2022-09-01T12:27:59;23.33;;;13.77;;
28130;SDS011;15418;42.634;23.374;2022-09-01T12:30:26;22.35;;;13.23;;
28130;SDS011;15418;42.634;23.374;2022-09-01T12:32:52;22.75;;;13.32;;
28130;SDS011;15418;42.634;23.374;2022-09-01T12:35:25;30.65;;;14.60;;
28130;SDS011;15418;42.634;23.374;2022-09-01T12:37:51;21.38;;;13.82;;
28130;SDS011;15418;42.634;23.374;2022-09-01T12:40:22;28.27;;;13.90;;
28130;SDS011;15418;42.634;23.374;2022-09-01T12:42:58;25.25;;;14.15;;
28130;SDS011;15418;42.634;23.374;2022-09-01T12:45:45;21.20;;;13.10;;
28130;SDS011;15418;42.634;23.374;2022-09-01T12:48:27;24.45;;;13.68;;
28130;SDS011;15418;42.634;23.374;2022-09-01T12:51:00;22.05;;;14.45;;
28130;SDS011;15418;42.634;23.374;2022-09-01T12:53:30;19.52;;;14.43;;
28130;SDS011;15418;42.634;23.374;2022-09-01T12:56:01;28.35;;;13.73;;
28130;SDS011;15418;42.634;23.374;2022-09-01T12:58:30;24.73;;;13.23;;
28130;SDS011;15418;42.634;23.374;2022-09-01T13:00:58;20.20;;;12.80;;
28130;SDS011;15418;42.634;23.374;2022-09-01T13:03:24;24.38;;;13.15;;
28130;SDS011;15418;42.634;23.374;2022-09-01T13:05:58;25.67;;;13.68;;
28130;SDS011;15418;42.634;23.374;2022-09-01T13:08:27;24.77;;;14.20;;
28130;SDS011;15418;42.634;23.374;2022-09-01T13:13:25;29.75;;;14.02;;
28130;SDS011;15418;42.634;23.374;2022-09-01T13:15:52;25.75;;;13.90;;
28130;SDS011;15418;42.634;23.374;2022-09-01T13:18:20;24.67;;;13.05;;
28130;SDS011;15418;42.634;23.374;2022-09-01T13:20:48;37.50;;;15.40;;
28130;SDS011;15418;42.634;23.374;2022-09-01T13:23:14;27.17;;;14.48;;
28130;SDS011;15418;42.634;23.374;2022-09-01T13:25:41;45.13;;;15.65;;
28130;SDS011;15418;42.634;23.374;2022-09-01T13:28:08;20.20;;;13.25;;
28130;SDS011;15418;42.634;23.374;2022-09-01T13:30:35;25.98;;;15.75;;
28130;SDS011;15418;42.634;23.374;2022-09-01T13:33:01;22.38;;;13.85;;
28130;SDS011;15418;42.634;23.374;2022-09-01T13:35:27;43.28;;;15.23;;
28130;SDS011;15418;42.634;23.374;2022-09-01T13:37:53;26.67;;;15.40;;
28130;SDS011;15418;42.634;23.374;2022-09-01T13:40:19;30.85;;;15.18;;
28130;SDS011;15418;42.634;23.374;2022-09-01T13:42:49;29.13;;;15.38;;
28130;SDS011;15418;42.634;23.374;2022-09-01T13:45:18;29.48;;;15.43;;
28130;SDS011;15418;42.634;23.374;2022-09-01T13:47:46;23.05;;;14.93;;
28130;SDS011;15418;42.634;23.374;2022-09-01T13:50:14;27.70;;;14.93;;
28130;SDS011;15418;42.634;23.374;2022-09-01T13:52:43;25.13;;;15.68;;
28130;SDS011;15418;42.634;23.374;2022-09-01T13:55:11;26.08;;;14.60;;
28130;SDS011;15418;42.634;23.374;2022-09-01T13:57:38;21.20;;;15.18;;
28130;SDS011;15418;42.634;23.374;2022-09-01T14:00:05;22.48;;;15.55;;
28130;SDS011;15418;42.634;23.374;2022-09-01T14:02:34;19.92;;;15.05;;
28130;SDS011;15418;42.634;23.374;2022-09-01T14:05:01;21.85;;;14.20;;
28130;SDS011;15418;42.634;23.374;2022-09-01T14:07:27;22.10;;;15.15;;
28130;SDS011;15418;42.634;23.374;2022-09-01T14:09:54;24.17;;;16.75;;
28130;SDS011;15418;42.634;23.374;2022-09-01T14:12:21;18.15;;;14.98;;
28130;SDS011;15418;42.634;23.374;2022-09-01T14:14:47;20.25;;;15.20;;
28130;SDS011;15418;42.634;23.374;2022-09-01T14:17:12;23.45;;;15.23;;
28130;SDS011;15418;42.634;23.374;2022-09-01T14:19:38;21.05;;;16.02;;
28130;SDS011;15418;42.634;23.374;2022-09-01T14:22:03;25.35;;;15.77;;
28130;SDS011;15418;42.634;23.374;2022-09-01T14:24:30;21.27;;;16.80;;
28130;SDS011;15418;42.634;23.374;2022-09-01T14:26:58;28.15;;;16.70;;
28130;SDS011;15418;42.634;23.374;2022-09-01T14:29:23;21.52;;;15.55;;
28130;SDS011;15418;42.634;23.374;2022-09-01T14:31:49;21.90;;;15.90;;
28130;SDS011;15418;42.634;23.374;2022-09-01T14:34:15;22.55;;;17.10;;
28130;SDS011;15418;42.634;23.374;2022-09-01T14:36:41;19.00;;;15.65;;
28130;SDS011;15418;42.634;23.374;2022-09-01T14:39:07;33.20;;;16.30;;
28130;SDS011;15418;42.634;23.374;2022-09-01T14:41:33;23.92;;;16.05;;
28130;SDS011;15418;42.634;23.374;2022-09-01T14:43:58;23.45;;;15.73;;
28130;SDS011;15418;42.634;23.374;2022-09-01T14:46:26;29.50;;;17.50;;
28130;SDS011;15418;42.634;23.374;2022-09-01T14:48:54;26.20;;;16.60;;
28130;SDS011;15418;42.634;23.374;2022-09-01T14:51:21;20.70;;;15.50;;
28130;SDS011;15418;42.634;23.374;2022-09-01T14:53:49;22.23;;;16.00;;
28130;SDS011;15418;42.634;23.374;2022-09-01T14:56:16;19.40;;;14.90;;
28130;SDS011;15418;42.634;23.374;2022-09-01T14:58:43;20.48;;;15.43;;
28130;SDS011;15418;42.634;23.374;2022-09-01T15:01:11;24.90;;;14.43;;
28130;SDS011;15418;42.634;23.374;2022-09-01T15:03:41;21.60;;;15.18;;
28130;SDS011;15418;42.634;23.374;2022-09-01T15:06:07;22.33;;;15.98;;
28130;SDS011;15418;42.634;23.374;2022-09-01T15:08:36;20.48;;;15.95;;
28130;SDS011;15418;42.634;23.374;2022-09-01T15:11:02;21.98;;;14.52;;
28130;SDS011;15418;42.634;23.374;2022-09-01T15:13:33;22.92;;;16.23;;
28130;SDS011;15418;42.634;23.374;2022-09-01T15:15:58;26.13;;;16.00;;
28130;SDS011;15418;42.634;23.374;2022-09-01T15:18:25;27.58;;;16.40;;
28130;SDS011;15418;42.634;23.374;2022-09-01T15:20:50;23.10;;;15.32;;
28130;SDS011;15418;42.634;23.374;2022-09-01T15:23:19;27.08;;;16.17;;
28130;SDS011;15418;42.634;23.374;2022-09-01T15:25:52;19.55;;;15.02;;
28130;SDS011;15418;42.634;23.374;2022-09-01T15:28:21;24.60;;;16.48;;
28130;SDS011;15418;42.634;23.374;2022-09-01T15:30:48;21.00;;;15.48;;
28130;SDS011;15418;42.634;23.374;2022-09-01T15:33:15;23.05;;;16.55;;
28130;SDS011;15418;42.634;23.374;2022-09-01T15:35:40;22.25;;;16.40;;
28130;SDS011;15418;42.634;23.374;2022-09-01T15:38:07;24.35;;;17.35;;
28130;SDS011;15418;42.634;23.374;2022-09-01T15:40:33;26.77;;;16.83;;
28130;SDS011;15418;42.634;23.374;2022-09-01T15:42:58;28.15;;;17.88;;
28130;SDS011;15418;42.634;23.374;2022-09-01T15:45:25;32.55;;;17.73;;